sensor_id;sensor_type;location;lat;lon;timestamp;P1;durP1;ratioP1;P2;durP2;ratioP2
15043;SDS011;7619;48.562;8.910;2023-04-08T00:01:52;7.20;;;4.80;;
15043;SDS011;7619;48.562;8.910;2023-04-08T00:04:20;7.17;;;5.70;;
15043;SDS011;7619;48.562;8.910;2023-04-08T00:06:48;6.20;;;5.30;;
15043;SDS011;7619;48.562;8.910;2023-04-08T00:09:16;5.57;;;5.00;;
15043;SDS011;7619;48.562;8.910;2023-04-08T00:11:44;5.67;;;5.07;;
15043;SDS011;7619;48.562;8.910;2023-04-08T00:14:12;5.37;;;4.53;;
15043;SDS011;7619;48.562;8.910;2023-04-08T00:16:40;6.03;;;4.50;;
15043;SDS011;7619;48.562;8.910;2023-04-08T00:19:08;6.57;;;4.67;;
15043;SDS011;7619;48.562;8.910;2023-04-08T00:21:37;5.27;;;4.43;;
15043;SDS011;7619;48.562;8.910;2023-04-08T00:24:05;6.83;;;5.63;;
15043;SDS011;7619;48.562;8.910;2023-04-08T00:26:33;6.73;;;4.77;;
15043;SDS011;7619;48.562;8.910;2023-04-08T00:29:01;4.63;;;4.20;;
15043;SDS011;7619;48.562;8.910;2023-04-08T00:31:29;5.73;;;4.43;;
15043;SDS011;7619;48.562;8.910;2023-04-08T00:33:57;4.53;;;4.13;;
15043;SDS011;7619;48.562;8.910;2023-04-08T00:36:25;5.20;;;4.60;;
15043;SDS011;7619;48.562;8.910;2023-04-08T00:38:53;5.40;;;3.77;;
15043;SDS011;7619;48.562;8.910;2023-04-08T00:41:23;4.53;;;4.13;;
15043;SDS011;7619;48.562;8.910;2023-04-08T00:43:51;4.87;;;4.30;;
15043;SDS011;7619;48.562;8.910;2023-04-08T00:46:19;5.53;;;4.27;;
15043;SDS011;7619;48.562;8.910;2023-04-08T00:48:48;8.20;;;5.13;;
15043;SDS011;7619;48.562;8.910;2023-04-08T00:51:16;7.73;;;6.30;;
15043;SDS011;7619;48.562;8.910;2023-04-08T00:53:44;9.93;;;6.97;;
15043;SDS011;7619;48.562;8.910;2023-04-08T00:56:12;7.27;;;6.00;;
15043;SDS011;7619;48.562;8.910;2023-04-08T00:58:40;9.97;;;7.50;;
15043;SDS011;7619;48.562;8.910;2023-04-08T01:01:09;9.30;;;6.77;;
15043;SDS011;7619;48.562;8.910;2023-04-08T01:03:41;11.40;;;7.73;;
15043;SDS011;7619;48.562;8.910;2023-04-08T01:06:12;13.43;;;7.93;;
15043;SDS011;7619;48.562;8.910;2023-04-08T01:08:39;13.30;;;9.03;;
15043;SDS011;7619;48.562;8.910;2023-04-08T01:11:10;12.83;;;8.33;;
15043;SDS011;7619;48.562;8.910;2023-04-08T01:13:39;12.80;;;8.33;;
15043;SDS011;7619;48.562;8.910;2023-04-08T01:16:08;13.30;;;8.50;;
15043;SDS011;7619;48.562;8.910;2023-04-08T01:18:36;13.03;;;8.83;;
15043;SDS011;7619;48.562;8.910;2023-04-08T01:21:05;13.23;;;8.50;;
15043;SDS011;7619;48.562;8.910;2023-04-08T01:23:38;12.00;;;8.47;;
15043;SDS011;7619;48.562;8.910;2023-04-08T01:26:05;11.90;;;8.47;;
15043;SDS011;7619;48.562;8.910;2023-04-08T01:28:33;12.20;;;7.80;;
15043;SDS011;7619;48.562;8.910;2023-04-08T01:31:02;11.37;;;8.17;;
15043;SDS011;7619;48.562;8.910;2023-04-08T01:33:30;12.77;;;8.50;;
15043;SDS011;7619;48.562;8.910;2023-04-08T01:35:58;9.13;;;7.10;;
15043;SDS011;7619;48.562;8.910;2023-04-08T01:38:27;10.47;;;7.93;;
15043;SDS011;7619;48.562;8.910;2023-04-08T01:40:56;12.10;;;7.80;;
15043;SDS011;7619;48.562;8.910;2023-04-08T01:43:24;9.83;;;7.43;;
15043;SDS011;7619;48.562;8.910;2023-04-08T01:45:53;10.43;;;7.50;;
15043;SDS011;7619;48.562;8.910;2023-04-08T01:48:24;10.37;;;7.97;;
15043;SDS011;7619;48.562;8.910;2023-04-08T01:50:52;10.30;;;8.10;;
15043;SDS011;7619;48.562;8.910;2023-04-08T01:53:20;10.90;;;7.60;;
15043;SDS011;7619;48.562;8.910;2023-04-08T01:55:50;12.10;;;8.37;;
15043;SDS011;7619;48.562;8.910;2023-04-08T01:58:19;9.30;;;7.53;;
15043;SDS011;7619;48.562;8.910;2023-04-08T02:00:48;13.50;;;8.20;;
15043;SDS011;7619;48.562;8.910;2023-04-08T02:03:18;10.07;;;8.23;;
15043;SDS011;7619;48.562;8.910;2023-04-08T02:05:47;10.83;;;7.50;;
15043;SDS011;7619;48.562;8.910;2023-04-08T02:08:16;8.87;;;6.87;;
15043;SDS011;7619;48.562;8.910;2023-04-08T02:10:44;11.47;;;7.87;;
15043;SDS011;7619;48.562;8.910;2023-04-08T02:13:12;10.03;;;7.77;;
15043;SDS011;7619;48.562;8.910;2023-04-08T02:15:41;11.63;;;8.07;;
15043;SDS011;7619;48.562;8.910;2023-04-08T02:18:12;13.67;;;9.37;;
15043;SDS011;7619;48.562;8.910;2023-04-08T02:20:42;15.37;;;9.57;;
15043;SDS011;7619;48.562;8.910;2023-04-08T02:23:12;12.43;;;8.90;;
15043;SDS011;7619;48.562;8.910;2023-04-08T02:25:41;14.17;;;9.27;;
15043;SDS011;7619;48.562;8.910;2023-04-08T02:28:10;12.70;;;9.43;;
15043;SDS011;7619;48.562;8.910;2023-04-08T02:30:40;16.20;;;9.70;;
15043;SDS011;7619;48.562;8.910;2023-04-08T02:33:08;13.50;;;9.13;;
15043;SDS011;7619;48.562;8.910;2023-04-08T02:35:37;17.50;;;10.47;;
15043;SDS011;7619;48.562;8.910;2023-04-08T02:38:06;13.80;;;10.53;;
15043;SDS011;7619;48.562;8.910;2023-04-08T02:40:35;13.53;;;9.87;;
15043;SDS011;7619;48.562;8.910;2023-04-08T02:43:03;15.53;;;10.60;;
15043;SDS011;7619;48.562;8.910;2023-04-08T02:45:32;12.97;;;9.83;;
15043;SDS011;7619;48.562;8.910;2023-04-08T02:48:02;14.80;;;10.87;;
15043;SDS011;7619;48.562;8.910;2023-04-08T02:50:31;15.73;;;9.27;;
15043;SDS011;7619;48.562;8.910;2023-04-08T02:52:59;14.07;;;10.37;;
15043;SDS011;7619;48.562;8.910;2023-04-08T02:55:27;14.70;;;10.57;;
15043;SDS011;7619;48.562;8.910;2023-04-08T02:57:55;13.57;;;9.77;;
15043;SDS011;7619;48.562;8.910;2023-04-08T03:00:23;16.77;;;10.97;;
15043;SDS011;7619;48.562;8.910;2023-04-08T03:02:51;13.87;;;9.80;;
15043;SDS011;7619;48.562;8.910;2023-04-08T03:05:19;13.03;;;10.20;;
15043;SDS011;7619;48.562;8.910;2023-04-08T03:07:47;14.13;;;10.43;;
15043;SDS011;7619;48.562;8.910;2023-04-08T03:10:16;15.70;;;10.73;;
15043;SDS011;7619;48.562;8.910;2023-04-08T03:12:44;13.27;;;9.87;;
15043;SDS011;7619;48.562;8.910;2023-04-08T03:15:12;10.67;;;8.83;;
15043;SDS011;7619;48.562;8.910;2023-04-08T03:17:40;14.27;;;10.00;;
15043;SDS011;7619;48.562;8.910;2023-04-08T03:20:09;13.23;;;9.53;;
15043;SDS011;7619;48.562;8.910;2023-04-08T03:22:37;13.23;;;9.30;;
15043;SDS011;7619;48.562;8.910;2023-04-08T03:25:06;11.30;;;8.20;;
15043;SDS011;7619;48.562;8.910;2023-04-08T03:27:34;12.87;;;9.53;;
15043;SDS011;7619;48.562;8.910;2023-04-08T03:30:02;14.97;;;9.37;;
15043;SDS011;7619;48.562;8.910;2023-04-08T03:32:30;12.17;;;9.17;;
15043;SDS011;7619;48.562;8.910;2023-04-08T03:34:59;13.67;;;8.83;;
15043;SDS011;7619;48.562;8.910;2023-04-08T03:37:27;10.43;;;8.20;;
15043;SDS011;7619;48.562;8.910;2023-04-08T03:39:55;14.57;;;10.10;;
15043;SDS011;7619;48.562;8.910;2023-04-08T03:42:23;12.37;;;9.30;;
15043;SDS011;7619;48.562;8.910;2023-04-08T03:44:51;12.30;;;8.50;;
15043;SDS011;7619;48.562;8.910;2023-04-08T03:47:19;11.97;;;7.83;;
15043;SDS011;7619;48.562;8.910;2023-04-08T03:49:48;11.43;;;7.50;;
15043;SDS011;7619;48.562;8.910;2023-04-08T03:52:16;11.30;;;8.10;;
15043;SDS011;7619;48.562;8.910;2023-04-08T03:54:45;9.60;;;7.13;;
15043;SDS011;7619;48.562;8.910;2023-04-08T03:57:13;8.67;;;6.37;;
15043;SDS011;7619;48.562;8.910;2023-04-08T03:59:42;10.10;;;6.37;;
15043;SDS011;7619;48.562;8.910;2023-04-08T04:02:10;9.50;;;6.60;;
15043;SDS011;7619;48.562;8.910;2023-04-08T04:04:38;11.83;;;7.00;;
15043;SDS011;7619;48.562;8.910;2023-04-08T04:07:07;9.67;;;7.53;;
15043;SDS011;7619;48.562;8.910;2023-04-08T04:09:35;11.10;;;7.90;;
15043;SDS011;7619;48.562;8.910;2023-04-08T04:12:03;12.27;;;7.63;;
15043;SDS011;7619;48.562;8.910;2023-04-08T04:14:31;10.33;;;6.73;;
15043;SDS011;7619;48.562;8.910;2023-04-08T04:16:59;10.70;;;7.03;;
15043;SDS011;7619;48.562;8.910;2023-04-08T04:19:29;9.03;;;6.70;;
15043;SDS011;7619;48.562;8.910;2023-04-08T04:21:57;9.53;;;6.60;;
15043;SDS011;7619;48.562;8.910;2023-04-08T04:24:25;10.17;;;7.33;;
15043;SDS011;7619;48.562;8.910;2023-04-08T04:26:53;11.47;;;7.57;;
15043;SDS011;7619;48.562;8.910;2023-04-08T04:29:21;8.53;;;6.83;;
15043;SDS011;7619;48.562;8.910;2023-04-08T04:31:49;10.20;;;6.97;;
15043;SDS011;7619;48.562;8.910;2023-04-08T04:34:17;9.40;;;6.77;;
15043;SDS011;7619;48.562;8.910;2023-04-08T04:36:46;10.90;;;6.90;;
15043;SDS011;7619;48.562;8.910;2023-04-08T04:39:13;9.13;;;6.63;;
15043;SDS011;7619;48.562;8.910;2023-04-08T04:41:42;9.83;;;6.80;;
15043;SDS011;7619;48.562;8.910;2023-04-08T04:44:10;9.07;;;6.83;;
15043;SDS011;7619;48.562;8.910;2023-04-08T04:46:38;8.97;;;6.30;;
15043;SDS011;7619;48.562;8.910;2023-04-08T04:49:06;9.63;;;6.70;;
15043;SDS011;7619;48.562;8.910;2023-04-08T04:51:34;9.20;;;6.17;;
15043;SDS011;7619;48.562;8.910;2023-04-08T04:54:02;9.13;;;6.47;;
15043;SDS011;7619;48.562;8.910;2023-04-08T04:56:30;8.23;;;6.07;;
15043;SDS011;7619;48.562;8.910;2023-04-08T04:58:58;6.40;;;4.97;;
15043;SDS011;7619;48.562;8.910;2023-04-08T05:01:26;6.47;;;5.40;;
15043;SDS011;7619;48.562;8.910;2023-04-08T05:03:55;10.03;;;6.33;;
15043;SDS011;7619;48.562;8.910;2023-04-08T05:06:23;7.67;;;5.90;;
15043;SDS011;7619;48.562;8.910;2023-04-08T05:08:52;9.60;;;6.60;;
15043;SDS011;7619;48.562;8.910;2023-04-08T05:11:20;6.27;;;5.13;;
15043;SDS011;7619;48.562;8.910;2023-04-08T05:13:48;8.07;;;5.90;;
15043;SDS011;7619;48.562;8.910;2023-04-08T05:16:16;8.23;;;6.30;;
15043;SDS011;7619;48.562;8.910;2023-04-08T05:18:44;8.77;;;6.77;;
15043;SDS011;7619;48.562;8.910;2023-04-08T05:21:12;11.10;;;7.60;;
15043;SDS011;7619;48.562;8.910;2023-04-08T05:23:40;9.87;;;7.40;;
15043;SDS011;7619;48.562;8.910;2023-04-08T05:26:08;9.90;;;6.30;;
15043;SDS011;7619;48.562;8.910;2023-04-08T05:28:37;10.70;;;7.90;;
15043;SDS011;7619;48.562;8.910;2023-04-08T05:31:05;9.23;;;6.97;;
15043;SDS011;7619;48.562;8.910;2023-04-08T05:33:33;10.87;;;8.30;;
15043;SDS011;7619;48.562;8.910;2023-04-08T05:36:01;11.27;;;7.70;;
15043;SDS011;7619;48.562;8.910;2023-04-08T05:38:29;10.93;;;7.63;;
15043;SDS011;7619;48.562;8.910;2023-04-08T05:40:57;9.33;;;7.13;;
15043;SDS011;7619;48.562;8.910;2023-04-08T05:43:25;10.30;;;6.80;;
15043;SDS011;7619;48.562;8.910;2023-04-08T05:45:53;9.93;;;7.27;;
15043;SDS011;7619;48.562;8.910;2023-04-08T05:48:21;11.07;;;7.63;;
15043;SDS011;7619;48.562;8.910;2023-04-08T05:50:49;11.03;;;7.60;;
15043;SDS011;7619;48.562;8.910;2023-04-08T05:53:17;9.53;;;6.53;;
15043;SDS011;7619;48.562;8.910;2023-04-08T05:55:45;8.97;;;7.00;;
15043;SDS011;7619;48.562;8.910;2023-04-08T05:58:13;9.77;;;6.77;;
15043;SDS011;7619;48.562;8.910;2023-04-08T06:00:41;8.43;;;6.23;;
15043;SDS011;7619;48.562;8.910;2023-04-08T06:03:09;9.27;;;6.37;;
15043;SDS011;7619;48.562;8.910;2023-04-08T06:05:37;8.03;;;6.40;;
15043;SDS011;7619;48.562;8.910;2023-04-08T06:08:06;7.77;;;6.20;;
15043;SDS011;7619;48.562;8.910;2023-04-08T06:10:34;7.10;;;5.70;;
15043;SDS011;7619;48.562;8.910;2023-04-08T06:13:02;6.37;;;4.80;;
15043;SDS011;7619;48.562;8.910;2023-04-08T06:15:30;8.53;;;5.63;;
15043;SDS011;7619;48.562;8.910;2023-04-08T06:17:58;9.17;;;5.80;;
15043;SDS011;7619;48.562;8.910;2023-04-08T06:20:26;6.10;;;5.17;;
15043;SDS011;7619;48.562;8.910;2023-04-08T06:22:54;7.47;;;5.10;;
15043;SDS011;7619;48.562;8.910;2023-04-08T06:25:22;7.73;;;5.53;;
15043;SDS011;7619;48.562;8.910;2023-04-08T06:27:50;7.43;;;5.60;;
15043;SDS011;7619;48.562;8.910;2023-04-08T06:30:18;6.27;;;4.87;;
15043;SDS011;7619;48.562;8.910;2023-04-08T06:32:47;7.80;;;6.10;;
15043;SDS011;7619;48.562;8.910;2023-04-08T06:35:15;7.50;;;5.93;;
15043;SDS011;7619;48.562;8.910;2023-04-08T06:37:43;6.00;;;5.27;;
15043;SDS011;7619;48.562;8.910;2023-04-08T06:40:11;5.93;;;5.33;;
15043;SDS011;7619;48.562;8.910;2023-04-08T06:42:39;8.77;;;4.77;;
15043;SDS011;7619;48.562;8.910;2023-04-08T06:45:10;5.60;;;4.40;;
15043;SDS011;7619;48.562;8.910;2023-04-08T06:47:38;6.27;;;4.63;;
15043;SDS011;7619;48.562;8.910;2023-04-08T06:50:07;5.97;;;4.53;;
15043;SDS011;7619;48.562;8.910;2023-04-08T06:52:35;5.53;;;4.10;;
15043;SDS011;7619;48.562;8.910;2023-04-08T06:55:04;5.97;;;4.80;;
15043;SDS011;7619;48.562;8.910;2023-04-08T06:57:32;5.67;;;4.73;;
15043;SDS011;7619;48.562;8.910;2023-04-08T07:00:00;6.00;;;5.03;;
15043;SDS011;7619;48.562;8.910;2023-04-08T07:02:28;6.40;;;5.00;;
15043;SDS011;7619;48.562;8.910;2023-04-08T07:04:56;7.77;;;5.50;;
15043;SDS011;7619;48.562;8.910;2023-04-08T07:07:24;6.63;;;5.10;;
15043;SDS011;7619;48.562;8.910;2023-04-08T07:09:52;6.23;;;4.70;;
15043;SDS011;7619;48.562;8.910;2023-04-08T07:12:20;7.43;;;5.57;;
15043;SDS011;7619;48.562;8.910;2023-04-08T07:14:48;7.03;;;5.57;;
15043;SDS011;7619;48.562;8.910;2023-04-08T07:17:16;6.70;;;5.20;;
15043;SDS011;7619;48.562;8.910;2023-04-08T07:19:44;5.87;;;4.80;;
15043;SDS011;7619;48.562;8.910;2023-04-08T07:22:12;5.70;;;4.70;;
15043;SDS011;7619;48.562;8.910;2023-04-08T07:24:42;5.47;;;4.87;;
15043;SDS011;7619;48.562;8.910;2023-04-08T07:27:11;6.73;;;5.20;;
15043;SDS011;7619;48.562;8.910;2023-04-08T07:29:39;7.37;;;5.80;;
15043;SDS011;7619;48.562;8.910;2023-04-08T07:32:07;6.50;;;5.73;;
15043;SDS011;7619;48.562;8.910;2023-04-08T07:34:35;5.83;;;4.83;;
15043;SDS011;7619;48.562;8.910;2023-04-08T07:37:03;6.73;;;4.80;;
15043;SDS011;7619;48.562;8.910;2023-04-08T07:39:31;5.17;;;4.67;;
15043;SDS011;7619;48.562;8.910;2023-04-08T07:41:59;5.37;;;4.87;;
15043;SDS011;7619;48.562;8.910;2023-04-08T07:44:27;5.07;;;4.33;;
15043;SDS011;7619;48.562;8.910;2023-04-08T07:46:55;4.93;;;4.43;;
15043;SDS011;7619;48.562;8.910;2023-04-08T07:49:23;8.00;;;5.10;;
15043;SDS011;7619;48.562;8.910;2023-04-08T07:51:51;5.27;;;4.37;;
15043;SDS011;7619;48.562;8.910;2023-04-08T07:54:19;5.33;;;4.13;;
15043;SDS011;7619;48.562;8.910;2023-04-08T07:56:47;5.13;;;4.63;;
15043;SDS011;7619;48.562;8.910;2023-04-08T07:59:15;5.47;;;3.80;;
15043;SDS011;7619;48.562;8.910;2023-04-08T08:01:43;5.47;;;4.47;;
15043;SDS011;7619;48.562;8.910;2023-04-08T08:04:12;4.53;;;4.00;;
15043;SDS011;7619;48.562;8.910;2023-04-08T08:06:40;6.30;;;4.50;;
15043;SDS011;7619;48.562;8.910;2023-04-08T08:09:08;5.23;;;4.50;;
15043;SDS011;7619;48.562;8.910;2023-04-08T08:11:36;5.63;;;4.33;;
15043;SDS011;7619;48.562;8.910;2023-04-08T08:14:04;6.20;;;4.80;;
15043;SDS011;7619;48.562;8.910;2023-04-08T08:16:33;6.13;;;4.40;;
15043;SDS011;7619;48.562;8.910;2023-04-08T08:19:02;5.63;;;4.80;;
15043;SDS011;7619;48.562;8.910;2023-04-08T08:21:30;6.07;;;4.47;;
15043;SDS011;7619;48.562;8.910;2023-04-08T08:23:58;5.77;;;4.70;;
15043;SDS011;7619;48.562;8.910;2023-04-08T08:26:26;5.50;;;4.83;;
15043;SDS011;7619;48.562;8.910;2023-04-08T08:28:54;6.27;;;5.43;;
15043;SDS011;7619;48.562;8.910;2023-04-08T08:31:22;7.07;;;5.83;;
15043;SDS011;7619;48.562;8.910;2023-04-08T08:33:50;7.17;;;5.40;;
15043;SDS011;7619;48.562;8.910;2023-04-08T08:36:18;6.00;;;4.77;;
15043;SDS011;7619;48.562;8.910;2023-04-08T08:38:46;6.83;;;5.40;;
15043;SDS011;7619;48.562;8.910;2023-04-08T08:41:14;6.23;;;4.97;;
15043;SDS011;7619;48.562;8.910;2023-04-08T08:43:42;9.00;;;5.17;;
15043;SDS011;7619;48.562;8.910;2023-04-08T08:46:11;6.30;;;4.93;;
15043;SDS011;7619;48.562;8.910;2023-04-08T08:48:40;5.80;;;4.63;;
15043;SDS011;7619;48.562;8.910;2023-04-08T08:51:08;5.50;;;4.73;;
15043;SDS011;7619;48.562;8.910;2023-04-08T08:53:37;8.30;;;5.43;;
15043;SDS011;7619;48.562;8.910;2023-04-08T08:56:05;7.40;;;6.10;;
15043;SDS011;7619;48.562;8.910;2023-04-08T08:58:35;5.23;;;4.67;;
15043;SDS011;7619;48.562;8.910;2023-04-08T09:03:55;6.63;;;5.20;;
15043;SDS011;7619;48.562;8.910;2023-04-08T09:06:25;5.60;;;4.63;;
15043;SDS011;7619;48.562;8.910;2023-04-08T09:08:53;5.27;;;4.30;;
15043;SDS011;7619;48.562;8.910;2023-04-08T09:11:21;5.23;;;4.70;;
15043;SDS011;7619;48.562;8.910;2023-04-08T09:13:49;6.47;;;5.00;;
15043;SDS011;7619;48.562;8.910;2023-04-08T09:16:17;5.63;;;5.10;;
15043;SDS011;7619;48.562;8.910;2023-04-08T09:18:46;6.53;;;4.97;;
15043;SDS011;7619;48.562;8.910;2023-04-08T09:21:16;6.40;;;5.60;;
15043;SDS011;7619;48.562;8.910;2023-04-08T09:23:44;7.13;;;5.40;;
15043;SDS011;7619;48.562;8.910;2023-04-08T09:26:14;10.97;;;5.17;;
15043;SDS011;7619;48.562;8.910;2023-04-08T09:28:42;6.53;;;4.80;;
15043;SDS011;7619;48.562;8.910;2023-04-08T09:31:18;7.57;;;5.33;;
15043;SDS011;7619;48.562;8.910;2023-04-08T09:33:46;6.37;;;5.03;;
15043;SDS011;7619;48.562;8.910;2023-04-08T09:36:15;7.43;;;5.87;;
15043;SDS011;7619;48.562;8.910;2023-04-08T09:38:43;6.63;;;5.30;;
15043;SDS011;7619;48.562;8.910;2023-04-08T09:41:14;5.57;;;4.77;;
15043;SDS011;7619;48.562;8.910;2023-04-08T09:43:42;5.60;;;4.70;;
15043;SDS011;7619;48.562;8.910;2023-04-08T09:46:13;7.93;;;6.03;;
15043;SDS011;7619;48.562;8.910;2023-04-08T09:48:45;9.50;;;5.73;;
15043;SDS011;7619;48.562;8.910;2023-04-08T09:51:13;7.47;;;6.30;;
15043;SDS011;7619;48.562;8.910;2023-04-08T09:53:45;9.13;;;5.77;;
15043;SDS011;7619;48.562;8.910;2023-04-08T09:56:12;8.80;;;6.40;;
15043;SDS011;7619;48.562;8.910;2023-04-08T09:58:44;8.80;;;5.77;;
15043;SDS011;7619;48.562;8.910;2023-04-08T10:01:12;8.37;;;5.10;;
15043;SDS011;7619;48.562;8.910;2023-04-08T10:03:44;5.30;;;4.63;;
15043;SDS011;7619;48.562;8.910;2023-04-08T10:06:11;7.13;;;6.00;;
15043;SDS011;7619;48.562;8.910;2023-04-08T10:08:39;6.57;;;5.57;;
15043;SDS011;7619;48.562;8.910;2023-04-08T10:13:49;8.60;;;6.27;;
15043;SDS011;7619;48.562;8.910;2023-04-08T10:16:18;7.17;;;5.90;;
15043;SDS011;7619;48.562;8.910;2023-04-08T10:18:47;8.60;;;5.63;;
15043;SDS011;7619;48.562;8.910;2023-04-08T10:24:08;8.07;;;5.73;;
15043;SDS011;7619;48.562;8.910;2023-04-08T10:26:40;7.23;;;5.70;;
15043;SDS011;7619;48.562;8.910;2023-04-08T10:29:30;5.87;;;5.30;;
15043;SDS011;7619;48.562;8.910;2023-04-08T10:31:59;7.83;;;6.57;;
15043;SDS011;7619;48.562;8.910;2023-04-08T10:34:28;9.77;;;6.07;;
15043;SDS011;7619;48.562;8.910;2023-04-08T10:36:56;7.00;;;6.20;;
15043;SDS011;7619;48.562;8.910;2023-04-08T10:39:32;8.77;;;5.67;;
15043;SDS011;7619;48.562;8.910;2023-04-08T10:42:00;8.13;;;6.63;;
15043;SDS011;7619;48.562;8.910;2023-04-08T10:44:29;7.70;;;6.07;;
15043;SDS011;7619;48.562;8.910;2023-04-08T10:46:57;11.33;;;5.93;;
15043;SDS011;7619;48.562;8.910;2023-04-08T10:49:32;7.73;;;5.90;;
15043;SDS011;7619;48.562;8.910;2023-04-08T10:52:00;6.20;;;5.20;;
15043;SDS011;7619;48.562;8.910;2023-04-08T10:54:30;6.87;;;5.50;;
15043;SDS011;7619;48.562;8.910;2023-04-08T10:56:58;7.57;;;6.10;;
15043;SDS011;7619;48.562;8.910;2023-04-08T10:59:29;7.30;;;6.27;;
15043;SDS011;7619;48.562;8.910;2023-04-08T11:01:58;8.23;;;6.80;;
15043;SDS011;7619;48.562;8.910;2023-04-08T11:04:28;7.53;;;5.53;;
15043;SDS011;7619;48.562;8.910;2023-04-08T11:06:56;8.07;;;6.53;;
15043;SDS011;7619;48.562;8.910;2023-04-08T11:09:24;8.97;;;6.80;;
15043;SDS011;7619;48.562;8.910;2023-04-08T11:11:53;7.40;;;5.93;;
15043;SDS011;7619;48.562;8.910;2023-04-08T11:14:22;6.67;;;6.07;;
15043;SDS011;7619;48.562;8.910;2023-04-08T11:16:52;7.47;;;5.87;;
15043;SDS011;7619;48.562;8.910;2023-04-08T11:19:20;8.27;;;6.13;;
15043;SDS011;7619;48.562;8.910;2023-04-08T11:21:49;8.17;;;6.30;;
15043;SDS011;7619;48.562;8.910;2023-04-08T11:24:17;7.47;;;6.30;;
15043;SDS011;7619;48.562;8.910;2023-04-08T11:26:48;8.93;;;6.67;;
15043;SDS011;7619;48.562;8.910;2023-04-08T11:29:16;8.47;;;6.30;;
15043;SDS011;7619;48.562;8.910;2023-04-08T11:31:44;8.03;;;6.37;;
15043;SDS011;7619;48.562;8.910;2023-04-08T11:34:20;7.93;;;6.57;;
15043;SDS011;7619;48.562;8.910;2023-04-08T11:36:48;5.90;;;5.13;;
15043;SDS011;7619;48.562;8.910;2023-04-08T11:39:16;8.40;;;6.07;;
15043;SDS011;7619;48.562;8.910;2023-04-08T11:41:44;8.03;;;5.50;;
15043;SDS011;7619;48.562;8.910;2023-04-08T11:44:13;8.83;;;6.30;;
15043;SDS011;7619;48.562;8.910;2023-04-08T11:46:41;9.07;;;6.80;;
15043;SDS011;7619;48.562;8.910;2023-04-08T11:49:10;7.30;;;5.63;;
15043;SDS011;7619;48.562;8.910;2023-04-08T11:51:53;8.33;;;7.13;;
15043;SDS011;7619;48.562;8.910;2023-04-08T11:54:25;7.90;;;6.40;;
15043;SDS011;7619;48.562;8.910;2023-04-08T11:56:54;8.27;;;6.60;;
15043;SDS011;7619;48.562;8.910;2023-04-08T11:59:23;8.87;;;6.80;;
15043;SDS011;7619;48.562;8.910;2023-04-08T12:01:52;8.63;;;6.97;;
15043;SDS011;7619;48.562;8.910;2023-04-08T12:04:20;8.40;;;6.97;;
15043;SDS011;7619;48.562;8.910;2023-04-08T12:06:48;7.97;;;6.67;;
15043;SDS011;7619;48.562;8.910;2023-04-08T12:09:16;7.03;;;6.23;;
15043;SDS011;7619;48.562;8.910;2023-04-08T12:11:44;7.77;;;6.70;;
15043;SDS011;7619;48.562;8.910;2023-04-08T12:14:12;8.13;;;6.90;;
15043;SDS011;7619;48.562;8.910;2023-04-08T12:16:41;10.47;;;6.87;;
15043;SDS011;7619;48.562;8.910;2023-04-08T12:19:09;7.83;;;5.97;;
15043;SDS011;7619;48.562;8.910;2023-04-08T12:21:38;9.13;;;6.87;;
15043;SDS011;7619;48.562;8.910;2023-04-08T12:24:06;8.63;;;6.30;;
15043;SDS011;7619;48.562;8.910;2023-04-08T12:26:34;7.80;;;6.40;;
15043;SDS011;7619;48.562;8.910;2023-04-08T12:29:02;7.50;;;5.60;;
15043;SDS011;7619;48.562;8.910;2023-04-08T12:31:30;8.93;;;6.23;;
15043;SDS011;7619;48.562;8.910;2023-04-08T12:33:58;8.33;;;6.33;;
15043;SDS011;7619;48.562;8.910;2023-04-08T12:36:26;9.13;;;6.23;;
15043;SDS011;7619;48.562;8.910;2023-04-08T12:38:54;9.00;;;6.90;;
15043;SDS011;7619;48.562;8.910;2023-04-08T12:41:23;9.00;;;6.33;;
15043;SDS011;7619;48.562;8.910;2023-04-08T12:43:51;10.47;;;6.57;;
15043;SDS011;7619;48.562;8.910;2023-04-08T12:46:19;7.47;;;5.60;;
15043;SDS011;7619;48.562;8.910;2023-04-08T12:48:47;9.13;;;6.83;;
15043;SDS011;7619;48.562;8.910;2023-04-08T12:51:15;7.97;;;7.03;;
15043;SDS011;7619;48.562;8.910;2023-04-08T12:53:44;11.77;;;6.90;;
15043;SDS011;7619;48.562;8.910;2023-04-08T12:56:12;10.47;;;6.90;;
15043;SDS011;7619;48.562;8.910;2023-04-08T12:58:40;8.87;;;7.17;;
15043;SDS011;7619;48.562;8.910;2023-04-08T13:01:08;9.47;;;6.93;;
15043;SDS011;7619;48.562;8.910;2023-04-08T13:03:38;7.23;;;6.07;;
15043;SDS011;7619;48.562;8.910;2023-04-08T13:06:07;7.83;;;6.37;;
15043;SDS011;7619;48.562;8.910;2023-04-08T13:08:36;8.30;;;6.63;;
15043;SDS011;7619;48.562;8.910;2023-04-08T13:11:04;9.20;;;7.50;;
15043;SDS011;7619;48.562;8.910;2023-04-08T13:13:32;8.13;;;6.67;;
15043;SDS011;7619;48.562;8.910;2023-04-08T13:16:00;8.63;;;6.13;;
15043;SDS011;7619;48.562;8.910;2023-04-08T13:18:29;8.60;;;6.90;;
15043;SDS011;7619;48.562;8.910;2023-04-08T13:20:57;7.53;;;6.27;;
15043;SDS011;7619;48.562;8.910;2023-04-08T13:23:25;7.23;;;5.90;;
15043;SDS011;7619;48.562;8.910;2023-04-08T13:25:53;7.80;;;6.27;;
15043;SDS011;7619;48.562;8.910;2023-04-08T13:28:21;7.17;;;6.37;;
15043;SDS011;7619;48.562;8.910;2023-04-08T13:30:49;8.27;;;6.70;;
15043;SDS011;7619;48.562;8.910;2023-04-08T13:33:17;9.63;;;7.00;;
15043;SDS011;7619;48.562;8.910;2023-04-08T13:35:45;8.47;;;6.73;;
15043;SDS011;7619;48.562;8.910;2023-04-08T13:38:13;7.50;;;6.80;;
15043;SDS011;7619;48.562;8.910;2023-04-08T13:40:41;7.90;;;6.63;;
15043;SDS011;7619;48.562;8.910;2023-04-08T13:43:11;7.10;;;6.30;;
15043;SDS011;7619;48.562;8.910;2023-04-08T13:45:40;7.20;;;6.17;;
15043;SDS011;7619;48.562;8.910;2023-04-08T13:48:09;7.60;;;6.80;;
15043;SDS011;7619;48.562;8.910;2023-04-08T13:50:37;7.57;;;6.70;;
15043;SDS011;7619;48.562;8.910;2023-04-08T13:53:06;7.53;;;6.13;;
15043;SDS011;7619;48.562;8.910;2023-04-08T13:55:34;8.57;;;6.73;;
15043;SDS011;7619;48.562;8.910;2023-04-08T13:58:02;7.20;;;6.10;;
15043;SDS011;7619;48.562;8.910;2023-04-08T14:00:30;10.37;;;6.23;;
15043;SDS011;7619;48.562;8.910;2023-04-08T14:02:58;5.93;;;5.20;;
15043;SDS011;7619;48.562;8.910;2023-04-08T14:05:26;7.37;;;6.07;;
15043;SDS011;7619;48.562;8.910;2023-04-08T14:07:56;7.40;;;6.37;;
15043;SDS011;7619;48.562;8.910;2023-04-08T14:10:24;9.47;;;6.33;;
15043;SDS011;7619;48.562;8.910;2023-04-08T14:12:52;8.00;;;5.77;;
15043;SDS011;7619;48.562;8.910;2023-04-08T14:15:20;9.70;;;6.13;;
15043;SDS011;7619;48.562;8.910;2023-04-08T14:17:48;6.63;;;5.60;;
15043;SDS011;7619;48.562;8.910;2023-04-08T14:20:16;7.87;;;6.53;;
15043;SDS011;7619;48.562;8.910;2023-04-08T14:22:44;7.50;;;6.10;;
15043;SDS011;7619;48.562;8.910;2023-04-08T14:25:13;7.57;;;6.17;;
15043;SDS011;7619;48.562;8.910;2023-04-08T14:27:41;7.50;;;6.10;;
15043;SDS011;7619;48.562;8.910;2023-04-08T14:30:10;7.90;;;6.70;;
15043;SDS011;7619;48.562;8.910;2023-04-08T14:32:38;10.33;;;6.70;;
15043;SDS011;7619;48.562;8.910;2023-04-08T14:35:06;10.07;;;6.63;;
15043;SDS011;7619;48.562;8.910;2023-04-08T14:37:34;11.10;;;6.90;;
15043;SDS011;7619;48.562;8.910;2023-04-08T14:40:05;8.67;;;6.83;;
15043;SDS011;7619;48.562;8.910;2023-04-08T14:42:33;8.73;;;6.63;;
15043;SDS011;7619;48.562;8.910;2023-04-08T14:45:02;9.13;;;6.67;;
15043;SDS011;7619;48.562;8.910;2023-04-08T14:47:30;8.60;;;7.00;;
15043;SDS011;7619;48.562;8.910;2023-04-08T14:49:58;11.00;;;6.87;;
15043;SDS011;7619;48.562;8.910;2023-04-08T14:52:26;13.07;;;7.90;;
15043;SDS011;7619;48.562;8.910;2023-04-08T14:54:54;11.43;;;7.40;;
15043;SDS011;7619;48.562;8.910;2023-04-08T14:57:23;10.10;;;7.33;;
15043;SDS011;7619;48.562;8.910;2023-04-08T14:59:51;7.23;;;6.30;;
15043;SDS011;7619;48.562;8.910;2023-04-08T15:02:19;11.47;;;8.00;;
15043;SDS011;7619;48.562;8.910;2023-04-08T15:04:48;8.97;;;6.53;;
15043;SDS011;7619;48.562;8.910;2023-04-08T15:07:16;8.87;;;6.90;;
15043;SDS011;7619;48.562;8.910;2023-04-08T15:09:44;8.93;;;6.70;;
15043;SDS011;7619;48.562;8.910;2023-04-08T15:12:12;10.00;;;7.67;;
15043;SDS011;7619;48.562;8.910;2023-04-08T15:14:40;8.13;;;6.10;;